createdAt,value
2023-05-20T00:02:14.319Z,13.00
2023-05-20T00:04:42.139Z,13.00
2023-05-20T00:07:09.325Z,13.10
2023-05-20T00:09:39.244Z,13.10
2023-05-20T00:12:08.277Z,13.10
2023-05-20T00:14:35.451Z,13.20
2023-05-20T00:17:02.441Z,13.20
2023-05-20T00:19:29.410Z,13.20
2023-05-20T00:21:57.946Z,13.20
2023-05-20T00:24:25.240Z,13.20
2023-05-20T00:26:52.152Z,13.20
2023-05-20T00:29:21.374Z,13.20
2023-05-20T00:31:48.984Z,13.20
2023-05-20T00:34:16.097Z,13.20
2023-05-20T00:36:43.096Z,13.20
2023-05-20T00:39:10.070Z,13.20
2023-05-20T00:41:37.066Z,13.20
2023-05-20T00:44:04.112Z,13.30
2023-05-20T00:46:32.539Z,13.30
2023-05-20T00:48:59.628Z,13.30
2023-05-20T00:51:26.703Z,13.30
2023-05-20T00:53:55.483Z,13.30
2023-05-20T00:56:23.323Z,13.30
2023-05-20T00:58:51.175Z,13.40
2023-05-20T01:01:18.134Z,13.30
2023-05-20T01:03:46.722Z,13.30
2023-05-20T01:06:13.710Z,13.30
2023-05-20T01:08:41.012Z,13.40
2023-05-20T01:11:10.007Z,13.40
2023-05-20T01:13:43.086Z,13.40
2023-05-20T01:16:11.438Z,13.40
2023-05-20T01:18:42.884Z,13.40
2023-05-20T01:21:13.775Z,13.40
2023-05-20T01:23:43.196Z,13.30
2023-05-20T01:26:13.814Z,13.40
2023-05-20T01:28:43.683Z,13.40
2023-05-20T01:31:15.671Z,13.40
2023-05-20T01:33:43.905Z,13.40
2023-05-20T01:36:12.064Z,13.40
2023-05-20T01:38:41.481Z,13.30
2023-05-20T01:41:11.462Z,13.30
2023-05-20T01:43:39.623Z,13.30
2023-05-20T01:46:07.129Z,13.30
2023-05-20T01:48:34.683Z,13.20
2023-05-20T01:51:01.748Z,13.20
2023-05-20T01:53:29.206Z,13.10
2023-05-20T01:55:56.127Z,13.10
2023-05-20T01:58:24.596Z,13.00
2023-05-20T02:00:51.630Z,13.00
2023-05-20T02:03:18.710Z,13.00
2023-05-20T02:05:45.714Z,12.90
2023-05-20T02:08:12.662Z,12.90
2023-05-20T02:10:39.556Z,12.90
2023-05-20T02:13:06.594Z,12.90
2023-05-20T02:15:35.536Z,12.80
2023-05-20T02:18:02.825Z,12.80
2023-05-20T02:20:29.791Z,12.80
2023-05-20T02:22:56.699Z,12.80
2023-05-20T02:25:23.669Z,12.80
2023-05-20T02:27:50.614Z,12.80
2023-05-20T02:30:17.984Z,12.80
2023-05-20T02:32:46.748Z,12.80
2023-05-20T02:35:13.804Z,12.80
2023-05-20T02:37:40.776Z,12.80
2023-05-20T02:40:09.361Z,12.80
2023-05-20T02:42:37.749Z,12.80
2023-05-20T02:45:05.598Z,12.80
2023-05-20T02:47:32.564Z,12.80
2023-05-20T02:50:00.933Z,12.80
2023-05-20T02:52:28.494Z,12.80
2023-05-20T02:54:56.422Z,12.80
2023-05-20T02:57:24.065Z,12.80
2023-05-20T02:59:52.360Z,12.70
2023-05-20T03:02:19.391Z,12.70
2023-05-20T03:04:47.411Z,12.70
2023-05-20T03:07:19.511Z,12.60
2023-05-20T03:09:46.838Z,12.60
2023-05-20T03:12:13.853Z,12.60
2023-05-20T03:14:40.772Z,12.60
2023-05-20T03:17:08.364Z,12.60
2023-05-20T03:19:35.516Z,12.60
2023-05-20T03:22:04.622Z,12.70
2023-05-20T03:24:33.449Z,12.70
2023-05-20T03:27:00.787Z,12.70
2023-05-20T03:29:27.681Z,12.60
2023-05-20T03:31:54.625Z,12.60
2023-05-20T03:34:21.877Z,12.60
2023-05-20T03:36:51.652Z,12.60
2023-05-20T03:39:18.550Z,12.50
2023-05-20T03:41:47.115Z,12.50
2023-05-20T03:44:14.141Z,12.40
2023-05-20T03:46:41.120Z,12.50
2023-05-20T03:49:08.259Z,12.50
2023-05-20T03:51:35.280Z,12.50
2023-05-20T03:54:07.694Z,12.50
2023-05-20T03:56:34.730Z,12.50
2023-05-20T03:59:02.970Z,12.60
2023-05-20T04:01:29.931Z,12.60
2023-05-20T04:03:57.189Z,12.70
2023-05-20T04:06:24.974Z,12.70
2023-05-20T04:08:52.865Z,12.70
2023-05-20T04:11:21.627Z,12.70
2023-05-20T04:13:48.675Z,12.80
2023-05-20T04:16:17.307Z,12.80
2023-05-20T04:18:46.041Z,12.80
2023-05-20T04:21:13.531Z,12.80
2023-05-20T04:23:40.648Z,12.90
2023-05-20T04:26:08.015Z,12.90
2023-05-20T04:28:34.949Z,12.90
2023-05-20T04:31:04.533Z,12.90
2023-05-20T04:33:38.675Z,12.90
2023-05-20T04:36:07.853Z,12.90
2023-05-20T04:38:35.971Z,13.00
2023-05-20T04:41:03.086Z,13.00
2023-05-20T04:43:30.560Z,13.00
2023-05-20T04:45:59.768Z,12.90
2023-05-20T04:48:27.522Z,13.00
2023-05-20T04:50:55.776Z,13.00
2023-05-20T04:53:23.364Z,13.10
2023-05-20T04:55:53.892Z,13.20
2023-05-20T04:58:24.245Z,13.20
2023-05-20T05:00:52.191Z,13.20
2023-05-20T05:03:19.200Z,13.30
2023-05-20T05:05:46.228Z,13.30
2023-05-20T05:08:14.636Z,13.40
2023-05-20T05:10:47.689Z,13.40
2023-05-20T05:13:14.616Z,13.40
2023-05-20T05:15:41.998Z,13.40
2023-05-20T05:18:09.557Z,13.50
2023-05-20T05:20:37.055Z,13.50
2023-05-20T05:23:04.090Z,13.60
2023-05-20T05:25:33.033Z,13.60
2023-05-20T05:28:00.349Z,13.70
2023-05-20T05:30:28.155Z,13.70
2023-05-20T05:32:55.226Z,13.80
2023-05-20T05:35:22.831Z,13.90
2023-05-20T05:37:49.742Z,13.90
2023-05-20T05:40:16.930Z,13.90
2023-05-20T05:42:45.712Z,14.00
2023-05-20T05:45:12.997Z,14.00
2023-05-20T05:47:42.591Z,14.10
2023-05-20T05:50:10.435Z,14.20
2023-05-20T05:52:38.015Z,14.20
2023-05-20T05:55:09.159Z,14.20
2023-05-20T05:57:36.221Z,14.30
2023-05-20T06:00:05.655Z,14.40
2023-05-20T06:02:44.885Z,14.50
2023-05-20T06:05:14.306Z,14.50
2023-05-20T06:07:41.261Z,14.60
2023-05-20T06:10:09.365Z,14.60
2023-05-20T06:12:36.361Z,14.60
2023-05-20T06:15:05.405Z,14.70
2023-05-20T06:17:32.462Z,14.80
2023-05-20T06:20:00.058Z,14.80
2023-05-20T06:22:27.304Z,14.80
2023-05-20T06:24:56.438Z,15.00
2023-05-20T06:27:23.393Z,15.00
2023-05-20T06:29:50.317Z,15.20
2023-05-20T06:32:19.248Z,15.20
2023-05-20T06:34:46.268Z,15.30
2023-05-20T06:37:13.711Z,15.30
2023-05-20T06:39:40.680Z,15.30
2023-05-20T06:42:08.249Z,15.50
2023-05-20T06:44:36.715Z,15.50
2023-05-20T06:47:36.732Z,15.60
2023-05-20T06:50:04.488Z,15.70
2023-05-20T06:52:31.619Z,15.80
2023-05-20T06:54:58.612Z,15.90
2023-05-20T06:57:26.302Z,16.00
2023-05-20T06:59:53.271Z,16.10
2023-05-20T07:02:21.812Z,16.30
2023-05-20T07:04:50.129Z,16.40
2023-05-20T07:07:17.974Z,16.50
2023-05-20T07:09:45.976Z,16.60
2023-05-20T07:12:12.971Z,16.70
2023-05-20T07:14:39.954Z,16.80
2023-05-20T07:17:07.001Z,16.90
2023-05-20T07:19:34.189Z,16.90
2023-05-20T07:22:02.473Z,16.90
2023-05-20T07:24:45.975Z,17.00
2023-05-20T07:27:12.937Z,17.10
2023-05-20T07:29:39.895Z,17.20
2023-05-20T07:32:08.953Z,17.20
2023-05-20T07:34:36.061Z,17.20
2023-05-20T07:37:04.587Z,17.20
2023-05-20T07:39:32.134Z,17.20
2023-05-20T07:41:59.446Z,17.30
2023-05-20T07:44:26.648Z,17.20
2023-05-20T07:46:55.213Z,17.20
2023-05-20T07:49:22.621Z,17.20
2023-05-20T07:51:49.814Z,17.20
2023-05-20T07:54:18.183Z,17.20
2023-05-20T07:56:47.744Z,17.20
2023-05-20T07:59:14.851Z,17.30
2023-05-20T08:01:45.126Z,17.30
2023-05-20T08:04:14.616Z,17.40
2023-05-20T08:06:42.013Z,17.40
2023-05-20T08:09:12.541Z,17.40
2023-05-20T08:11:47.560Z,17.50
2023-05-20T08:14:15.216Z,17.60
2023-05-20T08:16:46.027Z,17.60
2023-05-20T08:19:12.973Z,17.60
2023-05-20T08:21:39.944Z,17.50
2023-05-20T08:24:07.149Z,17.50
2023-05-20T08:26:35.348Z,17.40
2023-05-20T08:29:03.665Z,17.40
2023-05-20T08:31:30.712Z,17.40
2023-05-20T08:33:57.775Z,17.40
2023-05-20T08:36:25.343Z,17.40
2023-05-20T08:38:52.351Z,17.50
2023-05-20T08:41:19.309Z,17.60
2023-05-20T08:43:49.817Z,17.80
2023-05-20T08:46:20.046Z,18.10
2023-05-20T08:48:47.434Z,18.30
2023-05-20T08:51:17.652Z,18.60
2023-05-20T08:53:44.677Z,18.80
2023-05-20T08:56:12.973Z,19.20
2023-05-20T08:58:39.872Z,19.40
2023-05-20T09:01:08.352Z,19.60
2023-05-20T09:03:36.574Z,19.90
2023-05-20T09:06:04.829Z,20.00
2023-05-20T09:08:32.995Z,20.00
2023-05-20T09:11:00.732Z,20.00
2023-05-20T09:13:28.255Z,20.10
2023-05-20T09:15:55.233Z,20.20
2023-05-20T09:18:22.205Z,20.30
2023-05-20T09:20:52.950Z,20.40
2023-05-20T09:23:23.225Z,20.60
2023-05-20T09:25:53.612Z,20.80
2023-05-20T09:28:24.108Z,20.90
2023-05-20T09:30:51.797Z,21.10
2023-05-20T09:33:19.132Z,21.20
2023-05-20T09:35:46.919Z,21.30
2023-05-20T09:38:16.554Z,21.40
2023-05-20T09:40:45.929Z,21.30
2023-05-20T09:43:13.480Z,21.40
2023-05-20T09:45:41.646Z,21.50
2023-05-20T09:48:11.750Z,21.80
2023-05-20T09:50:39.297Z,21.90
2023-05-20T09:53:07.641Z,21.90
2023-05-20T09:55:37.033Z,21.90
2023-05-20T09:58:04.149Z,21.90
2023-05-20T10:00:31.542Z,21.90
2023-05-20T10:02:59.306Z,22.20
2023-05-20T10:05:30.245Z,22.60
2023-05-20T10:08:14.105Z,23.60
2023-05-20T10:10:47.767Z,25.10
2023-05-20T10:13:28.000Z,26.40
2023-05-20T10:16:02.419Z,27.10
2023-05-20T10:18:45.684Z,26.70
2023-05-20T10:21:16.945Z,26.80
2023-05-20T10:23:44.078Z,26.70
2023-05-20T10:26:12.357Z,26.70
2023-05-20T10:28:41.671Z,26.30
2023-05-20T10:31:21.033Z,26.20
2023-05-20T10:33:48.630Z,25.80
2023-05-20T10:36:24.296Z,25.90
2023-05-20T10:38:55.279Z,26.00
2023-05-20T10:41:25.070Z,25.70
2023-05-20T10:44:02.375Z,25.60
2023-05-20T10:46:35.360Z,25.60
2023-05-20T10:49:19.039Z,25.90
2023-05-20T10:51:47.033Z,26.20
2023-05-20T10:54:15.183Z,26.50
2023-05-20T10:56:52.033Z,27.00
2023-05-20T10:59:19.330Z,27.30
2023-05-20T11:01:46.719Z,27.20
2023-05-20T11:04:15.449Z,27.30
2023-05-20T11:06:50.775Z,27.50
2023-05-20T11:09:18.038Z,27.80
2023-05-20T11:11:46.633Z,28.10
2023-05-20T11:14:14.964Z,28.40
2023-05-20T11:16:42.828Z,28.60
2023-05-20T11:19:15.431Z,28.80
2023-05-20T11:21:46.092Z,28.80
2023-05-20T11:24:13.187Z,28.80
2023-05-20T11:26:40.508Z,28.90
2023-05-20T11:29:09.061Z,28.90
2023-05-20T11:31:38.152Z,28.60
2023-05-20T11:34:05.161Z,29.10
2023-05-20T11:36:32.450Z,29.20
2023-05-20T11:39:00.074Z,29.40
2023-05-20T11:41:27.953Z,29.40
2023-05-20T11:43:59.150Z,28.80
2023-05-20T11:46:27.729Z,28.50
2023-05-20T11:48:55.791Z,28.10
2023-05-20T11:51:27.463Z,27.70
2023-05-20T11:54:00.532Z,27.40
2023-05-20T11:56:29.373Z,27.20
2023-05-20T11:58:57.347Z,27.00
2023-05-20T12:01:24.551Z,26.90
2023-05-20T12:03:53.033Z,26.90
2023-05-20T12:06:20.580Z,27.00
2023-05-20T12:08:47.643Z,27.20
2023-05-20T12:11:14.672Z,27.80
2023-05-20T12:13:41.735Z,28.40
2023-05-20T12:16:08.762Z,28.80
2023-05-20T12:18:35.684Z,28.90
2023-05-20T12:21:04.059Z,28.80
2023-05-20T12:23:33.973Z,28.70
2023-05-20T12:26:01.174Z,28.60
2023-05-20T12:28:28.135Z,28.60
2023-05-20T12:30:55.007Z,28.50
2023-05-20T12:33:22.255Z,28.60
2023-05-20T12:35:49.220Z,28.60
2023-05-20T12:38:17.508Z,28.90
2023-05-20T12:40:44.466Z,29.00
2023-05-20T12:43:11.357Z,28.90
2023-05-20T12:45:38.244Z,28.90
2023-05-20T12:48:07.815Z,28.60
2023-05-20T12:50:35.055Z,28.30
2023-05-20T12:53:02.125Z,28.10
2023-05-20T12:55:30.348Z,28.00
2023-05-20T12:57:57.394Z,27.90
2023-05-20T13:00:24.370Z,28.00
2023-05-20T13:02:52.444Z,28.40
2023-05-20T13:05:20.645Z,28.70
2023-05-20T13:07:48.899Z,29.30
2023-05-20T13:10:17.304Z,29.70
2023-05-20T13:12:46.393Z,30.00
2023-05-20T13:15:14.756Z,30.20
2023-05-20T13:17:42.754Z,30.10
2023-05-20T13:20:11.023Z,29.90
2023-05-20T13:22:38.099Z,29.70
2023-05-20T13:25:06.615Z,29.50
2023-05-20T13:27:33.582Z,29.20
2023-05-20T13:30:01.967Z,28.90
2023-05-20T13:32:28.878Z,28.80
2023-05-20T13:34:57.034Z,29.10
2023-05-20T13:37:23.951Z,29.30
2023-05-20T13:39:51.714Z,29.30
2023-05-20T13:42:18.676Z,29.40
2023-05-20T13:44:45.622Z,29.30
2023-05-20T13:47:13.994Z,28.90
2023-05-20T13:49:40.928Z,28.70
2023-05-20T13:52:07.939Z,28.30
2023-05-20T13:54:35.024Z,28.00
2023-05-20T13:57:03.124Z,27.80
2023-05-20T13:59:30.111Z,27.70
2023-05-20T14:01:57.017Z,27.70
2023-05-20T14:04:26.372Z,27.70
2023-05-20T14:06:53.308Z,27.60
2023-05-20T14:09:20.194Z,27.40
2023-05-20T14:11:47.090Z,27.30
2023-05-20T14:14:14.061Z,27.30
2023-05-20T14:16:41.034Z,27.40
2023-05-20T14:19:09.154Z,27.40
2023-05-20T14:21:37.612Z,27.40
2023-05-20T14:24:04.781Z,27.40
2023-05-20T14:26:33.338Z,27.20
2023-05-20T14:29:00.327Z,27.30
2023-05-20T14:31:27.556Z,27.20
2023-05-20T14:33:54.545Z,27.00
2023-05-20T14:36:21.485Z,26.60
2023-05-20T14:38:49.875Z,26.30
2023-05-20T14:41:16.884Z,26.20
2023-05-20T14:43:43.783Z,26.00
2023-05-20T14:46:11.059Z,26.00
2023-05-20T14:48:38.021Z,26.00
2023-05-20T14:51:05.269Z,26.10
2023-05-20T14:53:32.205Z,26.20
2023-05-20T14:56:00.630Z,26.20
2023-05-20T14:58:27.702Z,26.20
2023-05-20T15:00:54.636Z,26.00
2023-05-20T15:03:23.474Z,25.90
2023-05-20T15:05:50.724Z,25.80
2023-05-20T15:08:18.065Z,25.70
2023-05-20T15:10:45.029Z,25.70
2023-05-20T15:13:13.341Z,25.60
2023-05-20T15:15:40.328Z,25.60
2023-05-20T15:18:07.269Z,25.60
2023-05-20T15:20:34.508Z,25.60
2023-05-20T15:23:01.449Z,25.80
2023-05-20T15:25:28.356Z,25.90
2023-05-20T15:27:55.342Z,26.00
2023-05-20T15:30:23.880Z,26.10
2023-05-20T15:32:51.027Z,25.90
2023-05-20T15:35:17.963Z,25.80
2023-05-20T15:37:44.923Z,25.70
2023-05-20T15:40:12.664Z,25.70
2023-05-20T15:42:41.116Z,25.70
2023-05-20T15:45:09.636Z,25.40
2023-05-20T15:47:40.549Z,25.40
2023-05-20T15:50:11.089Z,25.50
2023-05-20T15:52:38.615Z,25.70
2023-05-20T15:55:06.860Z,25.90
2023-05-20T15:57:33.772Z,25.70
2023-05-20T16:00:01.332Z,25.80
2023-05-20T16:02:28.699Z,25.90
2023-05-20T16:04:57.037Z,25.80
2023-05-20T16:07:23.929Z,25.70
2023-05-20T16:09:51.020Z,25.70
2023-05-20T16:12:17.918Z,25.50
2023-05-20T16:14:44.872Z,25.30
2023-05-20T16:17:12.297Z,25.20
2023-05-20T16:19:39.268Z,25.10
2023-05-20T16:22:09.261Z,25.10
2023-05-20T16:24:36.149Z,24.90
2023-05-20T16:27:03.691Z,24.80
2023-05-20T16:29:30.598Z,24.80
2023-05-20T16:31:57.629Z,24.90
2023-05-20T16:34:24.714Z,24.90
2023-05-20T16:36:51.820Z,25.00
2023-05-20T16:39:20.095Z,25.00
2023-05-20T16:41:47.057Z,25.10
2023-05-20T16:44:13.953Z,25.10
2023-05-20T16:46:41.257Z,25.10
2023-05-20T16:49:08.141Z,25.10
2023-05-20T16:51:35.131Z,25.20
2023-05-20T16:54:02.058Z,25.20
2023-05-20T16:56:30.498Z,25.20
2023-05-20T16:58:57.386Z,25.20
2023-05-20T17:01:24.325Z,25.20
2023-05-20T17:03:51.341Z,25.10
2023-05-20T17:06:18.391Z,25.10
2023-05-20T17:08:45.501Z,25.00
2023-05-20T17:11:12.497Z,25.00
2023-05-20T17:13:41.597Z,24.90
2023-05-20T17:16:09.950Z,24.90
2023-05-20T17:18:37.185Z,24.80
2023-05-20T17:21:04.212Z,24.80
2023-05-20T17:23:31.252Z,24.70
2023-05-20T17:25:58.186Z,24.70
2023-05-20T17:28:25.042Z,24.60
2023-05-20T17:30:53.402Z,24.60
2023-05-20T17:33:20.689Z,24.60
2023-05-20T17:35:47.784Z,24.50
2023-05-20T17:38:14.736Z,24.50
2023-05-20T17:40:41.734Z,24.40
2023-05-20T17:43:08.645Z,24.30
2023-05-20T17:45:35.700Z,24.30
2023-05-20T17:48:08.778Z,24.10
2023-05-20T17:50:37.935Z,24.00
2023-05-20T17:53:04.970Z,23.90
2023-05-20T17:55:32.837Z,23.90
2023-05-20T17:58:01.807Z,23.70
2023-05-20T18:00:28.774Z,23.60
2023-05-20T18:02:58.498Z,23.50
2023-05-20T18:05:26.932Z,23.50
2023-05-20T18:07:53.834Z,23.40
2023-05-20T18:10:20.961Z,23.30
2023-05-20T18:12:47.915Z,23.20
2023-05-20T18:15:16.925Z,23.10
2023-05-20T18:17:44.791Z,23.00
2023-05-20T18:20:12.882Z,23.00
2023-05-20T18:22:45.182Z,22.90
2023-05-20T18:25:12.533Z,22.90
2023-05-20T18:27:39.497Z,22.80
2023-05-20T18:30:09.083Z,22.80
2023-05-20T18:32:36.331Z,22.70
2023-05-20T18:35:03.327Z,22.60
2023-05-20T18:37:30.793Z,22.60
2023-05-20T18:39:59.189Z,22.50
2023-05-20T18:42:26.486Z,22.50
2023-05-20T18:44:53.725Z,22.40
2023-05-20T18:47:21.059Z,22.30
2023-05-20T18:49:47.961Z,22.30
2023-05-20T18:52:14.955Z,22.20
2023-05-20T18:54:41.961Z,22.10
2023-05-20T18:57:10.338Z,22.10
2023-05-20T18:59:37.238Z,22.00
2023-05-20T19:02:04.453Z,21.90
2023-05-20T19:04:32.498Z,21.90
2023-05-20T19:07:00.768Z,21.80
2023-05-20T19:09:27.856Z,21.80
2023-05-20T19:11:58.854Z,21.70
2023-05-20T19:14:27.121Z,21.70
2023-05-20T19:16:54.288Z,21.60
2023-05-20T19:19:21.315Z,21.60
2023-05-20T19:21:49.096Z,21.50
2023-05-20T19:24:17.736Z,21.40
2023-05-20T19:26:45.010Z,21.40
2023-05-20T19:29:11.913Z,21.40
2023-05-20T19:31:43.045Z,21.40
2023-05-20T19:34:10.221Z,21.30
2023-05-20T19:36:38.310Z,21.20
2023-05-20T19:39:05.446Z,21.20
2023-05-20T19:41:32.356Z,21.20
2023-05-20T19:43:59.245Z,21.10
2023-05-20T19:46:26.260Z,21.10
2023-05-20T19:48:54.700Z,21.00
2023-05-20T19:51:21.631Z,21.00
2023-05-20T19:53:48.853Z,20.90
2023-05-20T19:56:19.375Z,20.80
2023-05-20T19:58:46.417Z,20.80
2023-05-20T20:01:13.558Z,20.70
2023-05-20T20:03:41.723Z,20.70
2023-05-20T20:06:10.184Z,20.60
2023-05-20T20:08:39.364Z,20.60
2023-05-20T20:11:06.954Z,20.50
2023-05-20T20:13:33.929Z,20.50
2023-05-20T20:16:01.151Z,20.50
2023-05-20T20:18:28.044Z,20.40
2023-05-20T20:20:54.912Z,20.40
2023-05-20T20:23:23.077Z,20.40
2023-05-20T20:25:50.547Z,20.40
2023-05-20T20:28:17.437Z,20.30
2023-05-20T20:30:44.300Z,20.30
2023-05-20T20:33:11.371Z,20.20
2023-05-20T20:35:38.682Z,20.20
2023-05-20T20:38:09.666Z,20.10
2023-05-20T20:40:39.524Z,20.10
2023-05-20T20:43:09.113Z,20.00
2023-05-20T20:45:39.013Z,19.90
2023-05-20T20:48:07.952Z,20.00
2023-05-20T20:50:36.498Z,19.80
2023-05-20T20:53:03.607Z,19.80
2023-05-20T20:55:30.651Z,19.80
2023-05-20T20:58:02.529Z,19.70
2023-05-20T21:00:29.708Z,19.70
2023-05-20T21:02:56.729Z,19.70
2023-05-20T21:05:26.370Z,19.60
2023-05-20T21:07:58.288Z,19.60
2023-05-20T21:10:29.636Z,19.50
2023-05-20T21:12:58.253Z,19.40
2023-05-20T21:15:26.215Z,19.40
2023-05-20T21:17:53.395Z,19.30
2023-05-20T21:20:21.692Z,19.20
2023-05-20T21:22:48.962Z,19.20
2023-05-20T21:25:16.039Z,19.10
2023-05-20T21:27:43.002Z,19.00
2023-05-20T21:30:12.245Z,19.00
2023-05-20T21:32:39.621Z,19.00
2023-05-20T21:35:07.825Z,19.00
2023-05-20T21:37:34.724Z,19.00
2023-05-20T21:40:01.686Z,18.90
2023-05-20T21:42:28.896Z,18.90
2023-05-20T21:44:55.884Z,18.80
2023-05-20T21:47:24.148Z,18.80
2023-05-20T21:49:51.142Z,18.70
2023-05-20T21:52:18.232Z,18.70
2023-05-20T21:54:45.156Z,18.70
2023-05-20T21:57:12.068Z,18.70
2023-05-20T21:59:38.991Z,18.70
2023-05-20T22:02:06.345Z,18.70
2023-05-20T22:04:34.721Z,18.60
2023-05-20T22:07:01.910Z,18.60
2023-05-20T22:09:28.776Z,18.60
2023-05-20T22:11:56.160Z,18.50
2023-05-20T22:14:23.560Z,18.50
2023-05-20T22:16:50.637Z,18.50
2023-05-20T22:19:18.251Z,18.50
2023-05-20T22:21:50.605Z,18.50
2023-05-20T22:24:18.346Z,18.40
2023-05-20T22:26:45.696Z,18.30
2023-05-20T22:29:12.673Z,18.30
2023-05-20T22:31:39.758Z,18.20
2023-05-20T22:34:06.835Z,18.20
2023-05-20T22:36:34.210Z,18.20
2023-05-20T22:39:03.844Z,18.20
2023-05-20T22:41:30.922Z,18.10
2023-05-20T22:43:57.950Z,18.10
2023-05-20T22:46:25.093Z,18.10
2023-05-20T22:48:55.312Z,18.10
2023-05-20T22:51:22.779Z,18.00
2023-05-20T22:53:49.841Z,18.00
2023-05-20T22:56:18.965Z,18.00
2023-05-20T22:58:46.001Z,18.00
2023-05-20T23:01:13.284Z,18.00
2023-05-20T23:03:40.275Z,17.90
2023-05-20T23:06:07.256Z,17.80
2023-05-20T23:08:34.257Z,17.80
2023-05-20T23:11:01.135Z,17.80
2023-05-20T23:13:29.380Z,17.80
2023-05-20T23:15:56.315Z,17.80
2023-05-20T23:18:23.303Z,17.80
2023-05-20T23:20:50.431Z,17.70
2023-05-20T23:23:22.659Z,17.70
2023-05-20T23:25:54.906Z,17.70
2023-05-20T23:28:21.904Z,17.70
2023-05-20T23:30:50.159Z,17.70
2023-05-20T23:33:17.316Z,17.60
2023-05-20T23:35:44.596Z,17.60
2023-05-20T23:38:11.479Z,17.50
2023-05-20T23:40:38.451Z,17.50
2023-05-20T23:43:05.396Z,17.40
2023-05-20T23:45:32.511Z,17.50
2023-05-20T23:48:03.670Z,17.40
2023-05-20T23:50:32.569Z,17.40
2023-05-20T23:52:59.704Z,17.40
2023-05-20T23:55:28.418Z,17.40
2023-05-20T23:57:55.431Z,17.40
